KOJA

Thomas P Stafford Airport

Weatherford, Oklahoma, USA
METAR KOJA 231115Z AUTO 00000KT 10SM OVC060 12/11 A3021 RMK AO2
Observed Flight Rules
Oct-23 @ 11:15 UTC (35 minutes ago) Visual Flight Rules
Visibility Clouds
10 miles
  • Overcast at 6,000' AGL
Temperatures Readings
Current 12°C / 54°F
Dewpoint 11°C / 52°F
Humidity 94%
Altimeter 30.21" Hg
Pressure 1023 hPa
Elevation 490
METAR KOJA 231115Z AUTO 00000KT 10SM OVC060 12/11 A3021 RMK AO2
Observed Flight Rules
Oct-23 @ 11:15 UTC
(35 minutes ago)
VFR
Clouds
  • Overcast at 6,000' AGL
Temperature Dewpoint
12°C / 54°F 11°C / 52°F
Humidity Altimeter Pressure
94% 30.21" Hg 1023 hPa